createdAt,value
2019-02-02T00:03:42.419Z,5.36
2019-02-02T00:08:43.778Z,5.39
2019-02-02T00:13:45.163Z,5.32
2019-02-02T00:18:46.560Z,5.33
2019-02-02T00:23:48.044Z,5.30
2019-02-02T00:28:50.393Z,5.38
2019-02-02T00:33:51.749Z,5.39
2019-02-02T00:38:53.099Z,5.43
2019-02-02T00:43:54.494Z,5.46
2019-02-02T00:48:55.899Z,5.51
2019-02-02T00:53:57.351Z,5.55
2019-02-02T00:58:58.712Z,5.56
2019-02-02T01:04:00.101Z,5.58
2019-02-02T01:09:01.441Z,5.60
2019-02-02T01:14:02.806Z,5.54
2019-02-02T01:19:04.273Z,5.60
2019-02-02T01:24:05.723Z,5.59
2019-02-02T01:29:07.207Z,5.64
2019-02-02T01:34:08.527Z,5.66
2019-02-02T01:39:09.885Z,5.67
2019-02-02T01:44:11.234Z,5.70
2019-02-02T01:49:12.609Z,5.71
2019-02-02T01:54:13.931Z,5.71
2019-02-02T01:59:15.332Z,5.72
2019-02-02T02:04:16.712Z,5.78
2019-02-02T02:09:18.033Z,5.81
2019-02-02T02:14:19.352Z,5.84
2019-02-02T02:19:20.652Z,5.85
2019-02-02T02:24:22.086Z,5.79
2019-02-02T02:29:23.493Z,5.82
2019-02-02T02:34:25.658Z,5.71
2019-02-02T02:39:26.973Z,5.75
2019-02-02T02:44:28.310Z,5.72
2019-02-02T02:49:29.630Z,5.78
2019-02-02T02:54:31.007Z,5.81
2019-02-02T02:59:32.357Z,5.86
2019-02-02T03:04:33.723Z,5.90
2019-02-02T03:09:35.099Z,5.94
2019-02-02T03:14:36.454Z,5.98
2019-02-02T03:19:37.778Z,5.98
2019-02-02T03:24:39.182Z,6.00
2019-02-02T03:29:40.475Z,6.00
2019-02-02T03:34:41.807Z,6.04
2019-02-02T03:39:43.176Z,6.06
2019-02-02T03:44:44.496Z,6.05
2019-02-02T03:49:45.825Z,6.05
2019-02-02T03:54:47.185Z,6.05
2019-02-02T03:59:48.558Z,6.02
2019-02-02T04:04:49.988Z,6.01
2019-02-02T04:09:51.342Z,6.01
2019-02-02T04:14:52.649Z,5.95
2019-02-02T04:19:54.041Z,5.92
2019-02-02T04:24:55.376Z,5.93
2019-02-02T04:29:56.773Z,5.91
2019-02-02T04:34:58.218Z,5.91
2019-02-02T04:40:00.400Z,5.92
2019-02-02T04:45:02.487Z,5.97
2019-02-02T04:50:04.666Z,5.99
2019-02-02T04:55:06.879Z,6.03
2019-02-02T05:00:09.925Z,6.05
2019-02-02T05:05:11.281Z,6.07
2019-02-02T05:10:12.699Z,6.13
2019-02-02T05:15:14.101Z,6.16
2019-02-02T05:20:16.330Z,6.23
2019-02-02T05:25:18.399Z,6.26
2019-02-02T05:30:23.477Z,6.28
2019-02-02T05:35:24.873Z,6.25
2019-02-02T05:40:26.177Z,6.29
2019-02-02T05:45:27.530Z,6.30
2019-02-02T05:50:29.122Z,6.86
2019-02-02T05:55:35.380Z,7.19
2019-02-02T06:00:38.729Z,7.24
2019-02-02T06:05:40.789Z,7.10
2019-02-02T06:10:42.269Z,6.92
2019-02-02T06:15:44.320Z,6.79
2019-02-02T06:20:46.042Z,6.66
2019-02-02T06:25:47.362Z,6.44
2019-02-02T06:30:48.680Z,6.38
2019-02-02T06:35:50.036Z,6.41
2019-02-02T06:40:51.379Z,6.43
2019-02-02T06:45:53.477Z,6.48
2019-02-02T06:50:54.800Z,6.49
2019-02-02T06:55:56.115Z,6.43
2019-02-02T07:00:57.427Z,6.44
2019-02-02T07:06:00.834Z,6.46
2019-02-02T07:11:02.211Z,6.50
2019-02-02T07:16:03.661Z,6.57
2019-02-02T07:21:05.086Z,6.60
2019-02-02T07:26:06.415Z,6.62
2019-02-02T07:31:07.716Z,6.64
2019-02-02T07:36:09.117Z,6.67
2019-02-02T07:41:10.473Z,6.70
2019-02-02T07:46:15.003Z,6.78
2019-02-02T07:51:14.007Z,6.79
2019-02-02T07:56:15.376Z,6.46
2019-02-02T08:01:16.816Z,6.56
2019-02-02T08:06:18.192Z,6.60
2019-02-02T08:11:19.505Z,6.65
2019-02-02T08:16:20.830Z,6.72
2019-02-02T08:21:22.151Z,6.75
2019-02-02T08:26:24.217Z,6.78
2019-02-02T08:31:25.568Z,6.77
2019-02-02T08:36:26.892Z,6.78
2019-02-02T08:41:28.400Z,6.81
2019-02-02T08:46:30.489Z,6.83
2019-02-02T08:51:31.879Z,6.76
2019-02-02T08:56:34.120Z,6.91
2019-02-02T09:01:35.387Z,7.00
2019-02-02T09:06:38.984Z,7.11
2019-02-02T09:11:38.032Z,7.15
2019-02-02T09:16:39.348Z,7.23
2019-02-02T09:21:40.953Z,7.28
2019-02-02T09:26:42.363Z,7.26
2019-02-02T09:31:43.827Z,7.34
2019-02-02T09:36:45.144Z,7.39
2019-02-02T09:41:46.556Z,7.32
2019-02-02T09:46:47.958Z,7.40
2019-02-02T09:51:49.393Z,7.35
2019-02-02T09:56:50.726Z,7.23
2019-02-02T10:01:52.192Z,7.18
2019-02-02T10:07:15.828Z,7.51
2019-02-02T10:12:21.291Z,7.70
2019-02-02T10:17:23.424Z,7.70
2019-02-02T10:22:24.761Z,7.72
2019-02-02T10:27:26.147Z,7.73
2019-02-02T10:32:28.529Z,7.75
2019-02-02T10:37:40.465Z,7.66
2019-02-02T10:42:42.553Z,7.53
2019-02-02T10:47:44.064Z,7.45
2019-02-02T10:52:50.627Z,7.63
2019-02-02T10:57:52.277Z,7.65
2019-02-02T11:02:55.922Z,7.75
2019-02-02T11:07:57.321Z,7.80
2019-02-02T11:12:58.599Z,8.17
2019-02-02T11:18:00.203Z,8.27
2019-02-02T11:23:02.856Z,8.32
2019-02-02T11:28:04.274Z,8.46
2019-02-02T11:33:07.091Z,8.43
2019-02-02T11:38:08.474Z,8.56
2019-02-02T11:43:09.793Z,8.66
2019-02-02T11:48:14.895Z,8.77
2019-02-02T11:53:15.130Z,8.63
2019-02-02T11:58:16.472Z,8.43
2019-02-02T12:03:17.816Z,8.54
2019-02-02T12:08:26.996Z,8.75
2019-02-02T12:13:28.411Z,9.00
2019-02-02T12:18:29.713Z,8.88
2019-02-02T12:23:31.071Z,8.90
2019-02-02T12:28:32.436Z,9.22
2019-02-02T12:33:33.868Z,9.43
2019-02-02T12:38:36.760Z,9.72
2019-02-02T12:43:38.597Z,9.80
2019-02-02T12:48:39.991Z,9.99
2019-02-02T12:53:41.360Z,10.08
2019-02-02T12:58:42.879Z,10.07
2019-02-02T13:03:46.279Z,10.10
2019-02-02T13:08:48.816Z,9.99
2019-02-02T13:13:50.143Z,10.21
2019-02-02T13:18:51.633Z,10.11
2019-02-02T13:23:53.063Z,9.95
2019-02-02T13:28:55.329Z,10.00
2019-02-02T13:33:55.864Z,10.08
2019-02-02T13:38:58.343Z,10.02
2019-02-02T13:43:59.854Z,10.14
2019-02-02T13:49:01.228Z,10.22
2019-02-02T13:54:11.200Z,10.18
2019-02-02T13:59:24.130Z,10.22
2019-02-02T14:04:29.061Z,10.32
2019-02-02T14:09:31.214Z,10.38
2019-02-02T14:14:32.592Z,10.44
2019-02-02T14:19:33.996Z,10.46
2019-02-02T14:24:35.329Z,10.46
2019-02-02T14:29:38.407Z,10.46
2019-02-02T14:34:40.667Z,10.45
2019-02-02T14:39:41.420Z,10.39
2019-02-02T14:44:44.725Z,10.37
2019-02-02T14:49:54.764Z,10.33
2019-02-02T14:54:56.081Z,10.29
2019-02-02T14:59:57.535Z,10.24
2019-02-02T15:04:58.870Z,10.18
2019-02-02T15:10:00.338Z,10.04
2019-02-02T15:15:01.780Z,9.91
2019-02-02T15:25:33.736Z,9.78
2019-02-02T15:30:35.118Z,9.91
2019-02-02T15:35:36.479Z,9.92
2019-02-02T15:40:37.818Z,9.89
2019-02-02T15:45:39.225Z,9.87
2019-02-02T15:50:41.459Z,9.80
2019-02-02T15:55:50.487Z,9.76
2019-02-02T16:01:00.626Z,9.60
2019-02-02T16:06:01.978Z,9.54
2019-02-02T16:11:03.369Z,9.44
2019-02-02T16:16:04.700Z,9.42
2019-02-02T16:21:06.377Z,9.48
2019-02-02T16:26:07.716Z,9.37
2019-02-02T16:31:10.052Z,9.38
2019-02-02T16:36:12.536Z,9.16
2019-02-02T16:41:13.979Z,9.23
2019-02-02T16:46:15.777Z,9.17
2019-02-02T16:51:17.294Z,9.09
2019-02-02T16:56:18.679Z,9.09
2019-02-02T17:01:20.049Z,9.08
2019-02-02T17:06:21.823Z,9.08
2019-02-02T17:11:26.778Z,9.01
2019-02-02T17:16:28.311Z,9.04
2019-02-02T17:21:29.784Z,9.03
2019-02-02T17:26:31.331Z,8.96
2019-02-02T17:31:32.733Z,8.90
2019-02-02T17:36:34.254Z,8.99
2019-02-02T17:41:37.348Z,8.84
2019-02-02T17:46:39.699Z,8.86
2019-02-02T17:51:41.028Z,8.77
2019-02-02T17:56:46.120Z,8.74
2019-02-02T18:01:48.354Z,8.76
2019-02-02T18:06:50.430Z,8.73
2019-02-02T18:11:52.366Z,8.63
2019-02-02T18:16:53.764Z,8.63
2019-02-02T18:22:00.192Z,8.57
2019-02-02T18:27:06.167Z,8.49
2019-02-02T18:32:15.015Z,8.43
2019-02-02T18:37:23.641Z,8.40
2019-02-02T18:42:30.222Z,8.36
2019-02-02T18:47:32.352Z,8.34
2019-02-02T18:52:33.833Z,8.33
2019-02-02T18:57:35.280Z,8.30
2019-02-02T19:02:37.775Z,8.29
2019-02-02T19:07:39.220Z,8.28
2019-02-02T19:12:40.596Z,8.33
2019-02-02T19:17:42.673Z,8.34
2019-02-02T19:22:44.191Z,8.38
2019-02-02T19:27:47.692Z,8.36
2019-02-02T19:32:49.332Z,8.26
2019-02-02T19:37:50.912Z,7.88
2019-02-02T19:42:54.393Z,7.63
2019-02-02T19:47:59.713Z,7.80
2019-02-02T19:53:01.089Z,7.79
2019-02-02T19:58:05.237Z,7.58
2019-02-02T20:03:07.307Z,7.53
2019-02-02T20:08:10.434Z,7.40
2019-02-02T20:13:11.772Z,7.65
2019-02-02T20:18:13.999Z,7.59
2019-02-02T20:23:15.401Z,7.68
2019-02-02T20:28:16.933Z,7.60
2019-02-02T20:33:20.071Z,7.53
2019-02-02T20:38:19.829Z,7.51
2019-02-02T20:43:21.937Z,7.51
2019-02-02T20:48:24.390Z,7.55
2019-02-02T20:53:26.553Z,7.55
2019-02-02T20:58:28.121Z,7.53
2019-02-02T21:03:29.658Z,7.62
2019-02-02T21:08:32.900Z,7.63
2019-02-02T21:13:34.262Z,7.61
2019-02-02T21:18:35.771Z,7.56
2019-02-02T21:23:37.134Z,7.52
2019-02-02T21:28:49.817Z,7.52
2019-02-02T21:34:02.223Z,7.47
2019-02-02T21:39:17.057Z,7.45
2019-02-02T21:44:19.087Z,7.47
2019-02-02T21:49:20.402Z,7.48
2019-02-02T21:54:25.862Z,7.33
2019-02-02T21:59:29.353Z,7.43
2019-02-02T22:04:34.707Z,7.44
2019-02-02T22:09:36.857Z,7.45
2019-02-02T22:14:38.207Z,7.49
2019-02-02T22:19:39.614Z,7.46
2019-02-02T22:24:41.124Z,7.54
2019-02-02T22:29:43.254Z,7.57
2019-02-02T22:34:44.621Z,7.53
2019-02-02T22:39:46.453Z,7.43
2019-02-02T22:44:48.637Z,6.94
2019-02-02T22:49:49.948Z,6.75
2019-02-02T22:54:51.397Z,6.78
2019-02-02T22:59:52.901Z,6.20
2019-02-02T23:04:56.159Z,6.14
2019-02-02T23:15:56.080Z,5.73
2019-02-02T23:20:57.488Z,5.71
2019-02-02T23:25:59.161Z,5.49
2019-02-02T23:31:00.540Z,5.63
2019-02-02T23:36:01.953Z,5.55
2019-02-02T23:41:03.246Z,5.60
2019-02-02T23:46:05.392Z,5.34
2019-02-02T23:51:07.045Z,5.13
2019-02-02T23:56:08.850Z,5.48
